Latest Weather Observations for Kuitpo

IDS60901

Issued at 3:21 am CDT Saturday 15 December 2018 (issued every 10 minutes, with the page automatically refreshed every 10 minutes)

About weather observations | Map of Adelaide area stations | Latest observations for Adelaide area | Other Formats
Station Details ID: 023887 Name: KUITPO FOREST RESERVE Lat: -35.17 Lon: 138.68 Height: 365.0 m
Data from the previous 72 hours. | See also: Recent months at Kuitpo
Date/Time
CDT
Temp
°C
App
Temp
°C
Dew
Point
°C
Rel
Hum
%
Delta-T
°C
Wind Press
QNH
hPa
Press
MSL
hPa
Rain since
9am
mm
Dir  Spd
km/h
Gust
km/h
Spd
kts
Gust
kts
15/03:00am 13.5 12.9 13.5 100 0.0 SE 9 15 5 8 1004.3 1003.2 7.0
15/02:30am 13.6 13.4 13.6 100 0.0 SE 7 15 4 8 1004.5 1003.4 7.0
15/02:00am 13.6 13.0 13.6 100 0.0 SE 9 17 5 9 1004.5 1003.4 7.0
15/01:30am 13.6 12.7 13.6 100 0.0 SE 11 17 6 9 1004.8 1003.6 7.0
15/01:00am 13.5 11.8 13.5 100 0.0 SSE 15 22 8 12 1005.0 1003.8 7.0
15/12:30am 13.5 11.4 13.5 100 0.0 SE 17 24 9 13 1005.4 1004.2 7.0
15/12:00am 13.5 11.8 13.5 100 0.0 SSE 15 28 8 15 1005.8 1004.7 7.0
 
Date/Time
CDT
Temp
°C
App
Temp
°C
Dew
Point
°C
Rel
Hum
%
Delta-T
°C
Wind Press
QNH
hPa
Press
MSL
hPa
Rain since
9am
mm
Dir  Spd
km/h
Gust
km/h
Spd
kts
Gust
kts
14/11:30pm 13.6 12.3 13.6 100 0.0 SSE 13 22 7 12 1006.1 1005.0 6.8
14/11:00pm 13.6 11.9 13.6 100 0.0 SSE 15 24 8 13 1006.2 1005.1 6.8
14/10:30pm 13.6 11.9 13.6 100 0.0 SSE 15 28 8 15 1006.5 1005.4 6.8
14/10:00pm 13.7 11.3 13.7 100 0.0 S 19 35 10 19 1006.3 1005.2 6.8
14/09:30pm 13.8 11.4 13.8 100 0.0 S 19 30 10 16 1006.1 1005.0 6.6
14/09:00pm 14.0 12.8 14.0 100 0.0 SSE 13 20 7 11 1005.7 1004.6 6.6
14/08:30pm 14.0 12.0 14.0 100 0.0 SSE 17 32 9 17 1005.7 1004.6 6.4
14/08:00pm 14.0 11.5 14.0 100 0.0 SSE 20 43 11 23 1005.7 1004.6 6.4
14/07:30pm 14.1 12.6 14.1 100 0.0 SSE 15 30 8 16 1005.3 1004.1 6.4
14/07:00pm 14.0 11.5 14.0 100 0.0 SSE 20 44 11 24 1005.1 1003.9 6.0
14/06:30pm 14.1 11.6 14.1 100 0.0 SSE 20 39 11 21 1005.0 1003.8 5.4
14/06:00pm 14.1 11.8 14.1 100 0.0 S 19 33 10 18 1004.1 1003.0 5.2
14/05:30pm 14.0 11.5 14.0 100 0.0 SSE 20 46 11 25 1004.1 1003.0 5.2
14/05:00pm 14.1 10.8 14.1 100 0.0 S 24 44 13 24 1004.1 1003.0 4.8
14/04:30pm 14.3 11.9 14.3 100 0.0 S 20 35 11 19 1004.0 1002.9 4.6
14/04:00pm 14.4 12.2 14.4 100 0.0 S 19 28 10 15 1004.1 1003.0 4.2
14/03:30pm 14.5 12.1 14.5 100 0.0 S 20 43 11 23 1004.0 1002.9 4.2
14/03:00pm 14.7 12.4 14.7 100 0.0 S 20 33 11 18 1004.2 1003.1 4.2
14/02:30pm 14.9 12.3 14.9 100 0.0 S 22 46 12 25 1003.9 1002.8 4.2
14/02:00pm 15.1 13.1 14.9 99 0.1 SSE 19 37 10 20 1003.9 1002.8 4.2
14/01:30pm 14.9 13.2 14.7 99 0.1 SSE 17 41 9 22 1004.2 1003.1 4.0
14/01:00pm 14.8 12.5 14.6 99 0.1 SSE 20 43 11 23 1003.9 1002.8 3.4
14/12:30pm 14.6 12.8 14.4 99 0.1 S 17 32 9 17 1004.0 1002.9 3.0
14/12:00pm 15.1 14.2 14.9 99 0.1 S 13 24 7 13 1004.1 1003.0 3.0
14/11:30am 13.9 12.2 13.7 99 0.1 SE 15 28 8 15 1004.4 1003.3 2.8
14/11:00am 13.6 11.4 13.4 99 0.1 SE 17 35 9 19 1004.2 1003.1 2.6
14/10:30am 13.5 11.3 13.3 99 0.1 ESE 17 28 9 15 1004.1 1003.0 2.0
14/10:00am 13.2 8.8 13.0 99 0.1 ESE 28 48 15 26 1003.9 1002.8 1.8
14/09:30am 14.5 10.2 14.3 99 0.1 SSE 30 57 16 31 1003.1 1002.0 0.8
14/09:09am 14.4 10.4 14.2 99 0.1 S 28 52 15 28 1002.8 1001.6 0.2
14/09:00am 14.4 11.2 14.2 99 0.1 S 24 46 13 25 1003.0 1001.8 15.0
14/08:43am 14.2 10.2 14.0 99 0.1 S 28 52 15 28 1002.8 1001.6 14.2
14/08:30am 13.8 10.4 13.6 99 0.1 S 24 50 13 27 1002.6 1001.4 13.6
14/08:00am 13.2 8.8 13.0 99 0.1 S 28 46 15 25 1002.5 1001.3 13.0
14/07:30am 12.9 8.4 12.6 98 0.2 S 28 46 15 25 1002.1 1000.9 12.0
14/07:00am 12.7 7.8 12.4 98 0.2 SSW 30 54 16 29 1002.2 1001.0 11.2
14/06:36am 12.6 7.6 12.3 98 0.2 SSW 30 50 16 27 1002.2 1001.0 10.2
14/06:30am 12.5 7.9 12.2 98 0.2 SSW 28 44 15 24 1002.3 1001.1 10.0
14/06:06am 12.4 7.0 12.1 98 0.2 SSW 32 50 17 27 1002.2 1001.0 9.0
14/06:00am 12.4 7.0 12.1 98 0.2 SSW 32 48 17 26 1002.1 1000.9 8.8
14/05:31am 11.9 7.1 11.6 98 0.2 SSW 28 46 15 25 1002.4 1001.2 8.2
14/05:30am 11.9 7.5 11.6 98 0.2 SSW 26 46 14 25 1002.4 1001.2 8.2
14/05:00am 11.5 5.8 11.2 98 0.2 SSW 32 54 17 29 1002.5 1001.3 6.8
14/04:30am 11.3 6.3 11.0 98 0.2 SW 28 50 15 27 1002.7 1001.5 6.2
14/04:16am 11.1 6.1 10.8 98 0.2 SW 28 50 15 27 1002.6 1001.4 6.2
14/04:00am 10.9 6.6 10.6 98 0.2 SW 24 39 13 21 1002.9 1001.7 5.8
14/03:30am 10.7 6.3 10.4 98 0.2 SW 24 39 13 21 1003.3 1002.2 5.0
14/03:00am 10.4 5.5 10.1 98 0.2 SW 26 44 14 24 1003.7 1002.6 4.4
14/02:44am 10.3 5.0 10.0 98 0.2 SW 28 48 15 26 1004.0 1002.9 4.2
14/02:30am 10.3 5.8 10.0 98 0.2 SW 24 43 13 23 1004.4 1003.3 4.0
14/02:00am 10.1 5.5 9.6 97 0.3 SW 24 41 13 22 1005.0 1003.8 3.6
14/01:30am 9.9 5.6 9.4 97 0.3 SW 22 33 12 18 1005.4 1004.2 3.2
14/01:00am 9.5 5.7 9.0 97 0.3 SW 19 30 10 16 1005.9 1004.8 2.6
14/12:30am 9.3 5.2 8.5 95 0.4 SW 20 35 11 19 1005.9 1004.8 2.0
14/12:00am 9.5 4.6 8.3 92 0.6 SW 24 43 13 23 1006.4 1005.3 1.4
 
Date/Time
CDT
Temp
°C
App
Temp
°C
Dew
Point
°C
Rel
Hum
%
Delta-T
°C
Wind Press
QNH
hPa
Press
MSL
hPa
Rain since
9am
mm
Dir  Spd
km/h
Gust
km/h
Spd
kts
Gust
kts
13/11:32pm 9.8 3.9 7.6 86 1.1 SW 28 46 15 25 1006.9 1005.8 1.4
13/11:30pm 9.9 3.6 7.5 85 1.2 SW 30 46 16 25 1006.9 1005.8 1.4
13/11:00pm 10.3 4.2 6.8 79 1.7 SW 28 50 15 27 1007.3 1006.2 1.4
13/10:30pm 10.1 5.0 7.7 85 1.2 SW 24 41 13 22 1008.1 1007.0 1.4
13/10:00pm 9.7 4.7 8.0 89 0.8 SW 24 37 13 20 1008.4 1007.3 1.4
13/09:36pm 9.4 3.7 8.2 92 0.6 SW 28 48 15 26 1008.6 1007.5 1.4
13/09:30pm 9.2 4.6 8.0 92 0.6 SW 22 33 12 18 1008.7 1007.6 1.4
13/09:03pm 9.1 3.2 7.5 90 0.8 SW 28 46 15 25 1008.6 1007.5 1.4
13/09:00pm 9.2 2.9 7.6 90 0.8 SW 30 46 16 25 1008.6 1007.5 1.4
13/08:53pm 9.3 3.4 7.4 88 0.9 SW 28 50 15 27 1008.6 1007.5 1.4
13/08:30pm 9.8 5.0 7.2 84 1.3 SW 22 37 12 20 1008.6 1007.5 1.4
13/08:00pm 9.4 5.0 7.3 87 1.0 SW 20 32 11 17 1008.7 1007.6 1.2
13/07:30pm 9.3 4.5 7.4 88 0.9 SW 22 35 12 19 1008.5 1007.4 1.2
13/07:07pm 11.2 4.8 5.1 66 2.8 SSW 28 46 15 25 1008.2 1007.1 0.8
13/07:00pm 11.2 5.6 5.5 68 2.7 SSW 24 44 13 24 1008.2 1007.1 0.8
13/06:33pm 12.1 5.8 5.7 65 3.0 SW 28 48 15 26 1007.6 1006.4 0.8
13/06:30pm 12.1 6.6 5.9 66 3.0 SW 24 41 13 22 1007.4 1006.3 0.8
13/06:00pm 11.0 3.9 5.7 70 2.5 SW 32 54 17 29 1007.7 1006.5 0.8
13/05:30pm 11.7 5.4 5.6 66 2.9 SSW 28 48 15 26 1007.6 1006.4 0.8
13/05:00pm 12.6 4.7 4.6 58 3.7 SSW 35 54 19 29 1007.3 1006.2 0.8
13/04:30pm 12.4 4.8 2.8 52 4.3 SSW 32 52 17 28 1007.3 1006.2 0.8
13/04:00pm 14.0 6.5 3.5 49 4.8 SSW 32 50 17 27 1007.0 1005.9 0.8
13/03:33pm 12.2 5.7 4.9 61 3.4 SSW 28 57 15 31 1007.1 1006.0 0.8
13/03:30pm 12.1 6.2 5.7 65 3.1 SSW 26 43 14 23 1007.3 1006.2 0.8
13/03:00pm 11.3 4.8 6.6 73 2.3 SW 30 57 16 31 1007.2 1006.1 0.8
13/02:30pm 13.1 6.0 5.3 59 3.7 SSW 32 61 17 33 1007.1 1006.0 0.8
13/02:17pm 11.6 5.4 6.1 69 2.6 SSW 28 46 15 25 1007.2 1006.1 0.8
13/02:00pm 10.4 5.3 7.6 83 1.4 SSW 24 43 13 23 1007.4 1006.3 0.8
13/01:30pm 12.3 5.7 7.6 73 2.3 SW 32 56 17 30 1006.9 1005.8 0.8
13/01:00pm 12.5 5.4 6.3 66 3.0 SW 33 63 18 34 1006.7 1005.6 0.8
13/12:44pm 13.0 4.7 5.9 62 3.4 SW 39 76 21 41 1006.8 1005.7 0.8
13/12:30pm 11.9 3.9 5.8 66 2.9 SSW 37 57 20 31 1006.7 1005.6 0.8
13/12:00pm 12.0 6.1 7.5 74 2.2 SW 28 46 15 25 1006.6 1005.5 0.6
13/11:30am 12.2 4.7 6.5 68 2.8 SSW 35 57 19 31 1006.4 1005.3 0.6
13/11:12am 9.9 4.0 7.5 85 1.2 SW 28 56 15 30 1006.5 1005.4 0.6
13/11:00am 10.1 5.1 8.2 88 0.9 SW 24 39 13 21 1006.4 1005.3 0.6
13/10:30am 9.7 4.5 7.1 84 1.3 SSW 24 39 13 21 1006.6 1005.5 0.4
13/10:00am 11.2 5.0 6.1 71 2.4 SW 28 54 15 29 1006.4 1005.3 0.0
13/09:36am 12.5 6.4 6.8 68 2.8 SW 28 46 15 25 1006.0 1004.9 0.0
13/09:30am 11.9 5.7 6.0 67 2.8 SW 28 43 15 23 1006.2 1005.1 0.0
13/09:03am 12.7 6.3 5.4 61 3.5 SW 28 46 15 25 1006.0 1004.9 0.0
13/09:00am 12.6 6.3 5.8 63 3.3 SW 28 44 15 24 1006.0 1004.9 4.8
13/08:30am 12.1 4.9 5.7 65 3.1 SW 33 57 18 31 1006.0 1004.9 4.8
13/08:14am 11.6 5.4 6.1 69 2.6 SW 28 46 15 25 1005.9 1004.8 4.8
13/08:00am 11.7 6.4 6.8 72 2.4 SW 24 41 13 22 1006.0 1004.9 4.8
13/07:30am 11.2 6.0 7.1 76 2.0 SW 24 37 13 20 1006.1 1005.0 4.8
13/07:00am 10.8 5.4 8.0 83 1.4 SW 26 43 14 23 1005.9 1004.8 4.8
13/06:30am 10.5 5.9 9.6 94 0.5 SW 24 35 13 19 1005.5 1004.4 4.8
13/06:00am 10.5 6.0 9.9 96 0.3 SW 24 37 13 20 1005.0 1003.8 4.8
13/05:37am 10.8 5.6 10.3 97 0.3 SW 28 50 15 27 1004.4 1003.3 4.6
13/05:30am 11.1 6.8 10.6 97 0.3 SW 24 39 13 21 1004.3 1003.2 4.6
13/05:00am 11.9 8.5 11.4 97 0.3 SW 20 44 11 24 1003.9 1002.8 3.0
13/04:30am 12.2 8.5 11.6 96 0.3 SW 22 43 12 23 1003.6 1002.5 2.4
13/04:00am 12.7 10.1 11.9 95 0.4 SW 17 32 9 17 1003.5 1002.4 1.2
13/03:30am 13.1 10.1 12.5 96 0.3 SW 20 39 11 21 1003.5 1002.4 1.0
13/03:00am 13.6 10.4 13.1 97 0.3 SW 22 37 12 20 1003.4 1002.3 1.0
13/02:53am 13.6 9.3 13.1 97 0.3 SW 28 46 15 25 1003.4 1002.3 1.0
13/02:30am 14.4 11.5 13.9 97 0.3 WSW 22 35 12 19 1003.3 1002.2 0.8
13/02:00am 14.6 13.3 13.8 95 0.5 SW 13 24 7 13 1003.6 1002.5 0.8
13/01:30am 14.8 14.3 13.7 93 0.6 SW 9 17 5 9 1003.9 1002.8 0.6
13/01:00am 15.0 14.2 13.9 93 0.6 SW 11 15 6 8 1004.1 1003.0 0.6
13/12:30am 14.9 13.7 13.9 94 0.6 SSW 13 19 7 10 1004.0 1002.9 0.6
13/12:00am 15.1 13.6 14.3 95 0.5 SSW 15 22 8 12 1004.0 1002.9 0.6
 
Date/Time
CDT
Temp
°C
App
Temp
°C
Dew
Point
°C
Rel
Hum
%
Delta-T
°C
Wind Press
QNH
hPa
Press
MSL
hPa
Rain since
9am
mm
Dir  Spd
km/h
Gust
km/h
Spd
kts
Gust
kts
12/11:30pm 15.3 13.1 14.5 95 0.5 SSW 19 30 10 16 1004.0 1002.9 0.6
12/11:00pm 16.0 14.8 15.0 94 0.6 WSW 15 24 8 13 1003.7 1002.6 0.6
12/10:30pm 16.9 14.2 14.5 86 1.4 WSW 22 35 12 19 1003.3 1002.2 0.2
12/10:00pm 18.2 18.6 16.2 88 1.2 WNW 9 13 5 7 1002.8 1001.6 0.2
12/09:30pm 18.6 18.0 15.7 83 1.7 W 13 22 7 12 1002.3 1001.1 0.2
12/09:00pm 19.2 17.4 14.5 74 2.8 WSW 17 26 9 14 1002.1 1000.9 0.2
12/08:30pm 21.8 21.8 15.2 66 4.0 W 9 17 5 9 1001.3 1000.2 0.0
12/08:00pm 23.1 22.2 14.9 60 4.9 W 13 20 7 11 1001.5 1000.4 0.0
12/07:30pm 24.9 23.7 14.1 51 6.5 W 13 20 7 11 1001.3 1000.2 0.0
12/07:00pm 26.3 25.5 14.1 47 7.4 W 11 15 6 8 1001.3 1000.2 0.0
12/06:30pm 26.2 24.7 15.3 51 6.7 NNW 17 28 9 15 1001.4 1000.3 0.0
12/06:00pm 25.9 24.9 14.7 50 6.8 NW 13 24 7 13 1001.9 1000.7 0.0
12/05:30pm 24.0 23.3 15.5 59 5.2 NW 13 20 7 11 1002.1 1000.9 0.0
12/05:00pm 26.5 22.5 11.8 40 8.6 NW 24 37 13 20 1001.6 1000.5 0.0
12/04:30pm 30.0 26.1 9.5 28 11.7 NW 20 43 11 23 1001.6 1000.5 0.0
12/04:00pm 29.1 25.2 8.7 28 11.4 W 19 30 10 16 1002.1 1000.9 0.0
12/03:30pm 30.6 26.9 9.5 27 12.1 WNW 19 32 10 17 1002.2 1001.0 0.0
12/03:00pm 31.1 27.5 8.2 24 12.9 W 17 26 9 14 1002.8 1001.6 0.0
12/02:30pm 30.4 26.2 8.2 25 12.5 W 20 30 11 16 1003.2 1002.1 0.0
12/02:00pm 30.3 26.3 8.1 25 12.4 W 19 28 10 15 1003.6 1002.5 0.0
12/01:30pm 30.0 26.0 8.4 26 12.1 W 19 30 10 16 1004.0 1002.9 0.0
12/01:00pm 30.3 26.8 8.7 26 12.2 WNW 17 28 9 15 1004.1 1003.0 0.0
12/12:30pm 30.4 27.6 8.7 26 12.3 W 13 20 7 11 1004.2 1003.1 0.0
12/12:00pm 29.8 27.0 9.9 29 11.4 NW 15 26 8 14 1004.7 1003.5 0.0
12/11:30am 29.1 26.4 10.3 31 10.8 NW 15 22 8 12 1005.0 1003.8 0.0
12/11:00am 28.2 25.5 10.4 33 10.2 NW 15 22 8 12 1005.2 1004.0 0.0
12/10:30am 27.9 25.8 11.0 35 9.8 NW 13 22 7 12 1005.4 1004.2 0.0
12/10:00am 28.1 25.6 11.2 35 9.8 WNW 15 22 8 12 1005.6 1004.5 0.0
12/09:30am 27.7 25.6 11.3 36 9.5 NW 13 20 7 11 1005.8 1004.7 0.0
12/09:00am 26.8 24.7 11.3 38 9.0 NW 13 19 7 10 1005.9 1004.8 0.2
12/08:30am 25.9 24.9 12.4 43 7.9 NNW 9 15 5 8 1006.0 1004.9 0.2
12/08:00am 23.1 21.5 10.2 44 7.2 NNE 9 13 5 7 1005.8 1004.7 0.2
12/07:30am 22.7 21.0 9.8 44 7.1 NNE 9 11 5 6 1005.7 1004.6 0.2
12/07:00am 21.8 19.9 9.0 44 6.9 N 9 15 5 8 1006.0 1004.9 0.2
12/06:30am 20.8 17.5 4.4 34 8.1 NNE 11 17 6 9 1006.0 1004.9 0.2
12/06:00am 20.2 16.4 3.9 34 8.0 NE 13 20 7 11 1005.7 1004.6 0.2
12/05:30am 19.8 15.7 4.3 36 7.6 NE 15 22 8 12 1005.6 1004.5 0.2
12/05:00am 19.9 16.2 4.4 36 7.6 NE 13 20 7 11 1005.7 1004.6 0.2
12/04:30am 19.8 15.7 4.3 36 7.6 ENE 15 20 8 11 1005.9 1004.8 0.2
12/04:00am 20.6 15.9 3.3 32 8.4 ENE 17 24 9 13 1005.9 1004.8 0.2
12/03:30am 21.1 16.4 2.9 30 8.8 E 17 22 9 12 1006.3 1005.2 0.2

Latest Capital City Observations: Canberra | Sydney | Melbourne | Brisbane | Adelaide | Perth | Hobart | Darwin

Other Formats:

Comma delimited format used in spreadsheet applications
http://www.bom.gov.au/fwo/IDS60901/IDS60901.94683.axf

JavaScript Object Notation format (JSON) in row-major order
http://www.bom.gov.au/fwo/IDS60901/IDS60901.94683.json